Frederick, SD

8:29 AM CST on November 26, 2014 (GMT -0600)
Willow Creek Lake | Change Station
CLOSE
Current Station
Personal Weather Station
Location: Frederick, SD
Elevation: 1411 ft
Nearby Weather Stations
Active Advisory: Winter Weather Advisory Active Notice: Local Storm Report

Elev 1411 ft 45.72 °N, 98.61 °W | Updated 3 minutes ago

Partly Cloudy
Partly Cloudy
1.8 °F
Feels Like -15 °F
N
12.0
Wind Variable Wind from North
Gusts 16.0 mph

Today
High -- | Low -- °F
--% Chance of Precip.
Yesterday
High -- | Low -- °F
Precip. -- in
7:48 AM 4:53 PM
Waxing Crescent, 20% visible
Pressure 30.37 in
Visibility 10.0 miles
Clouds Few 800 ft
Windchill -15 °F
Dew Point -2 °F
Humidity 83%
Rainfall 0.00 in
Snow Depth Not available.
UV 0 out of 12
Pollen .10 out of 12
Air Quality Not available.
Flu Activity Not available.
METAR KABR 261353Z AUTO 36015KT 10SM FEW008 M14/M18 A3030 RMK AO2 PK WND 36027/1340 SLP283 T11441183

More Conditions Fewer Conditions

Pressure 30.37 in
Visibility 10.0 miles
Clouds Few 800 ft
Windchill -15 °F
Dew Point -2 °F
Humidity 83%
Rainfall 0.00 in
Snow Depth Not available.
UV 0 out of 12
Pollen .10 out of 12
Air Quality Not available.
Flu Activity Not available.
METAR KABR 261353Z AUTO 36015KT 10SM FEW008 M14/M18 A3030 RMK AO2 PK WND 36027/1340 SLP283 T11441183

More Conditions Fewer Conditions

10-Day Weather Forecast

Almanac

Astronomy

Nov. 26, 2014 Rise Set
Actual Time
Civil Twilight
Nautical Twilight
Astronomical Twilight
Moon
Length of Visible Light
Length of Day
Tomorrow will be .
, % of the Moon is Illuminated

Today's Extremes

State Highs State Lows

Community

WunderPhotos

Upload Photos

1,773,752 photos uploaded!

WunderBlogs® & News

Nearby

Air Quality

  Air Quality AQ Index Pollutant
Not available.

Snow Depth

Station Depth Elevation

Earthquake Activity

City Distance Mag. Time & Date
Minimum magnitude displayed is 2.5.

Coastal Water Temperatures

Place Temperature

Nearby Weather Stations